Time;durP1;ratioP1;P1;durP2;ratioP2;P2;SDS_P1;SDS_P2;PMS_P1;PMS_P2;Temp;Humidity;BMP_temperature;BMP_pressure;BME280_temperature;BME280_humidity;BME280_pressure;Samples;Min_cycle;Max_cycle;Signal;HPM_P1;HPM_P2
2023/10/14 00:00:35;;;;;;;10.15;4.05;;;;;;;21.97;53.23;99039.94;10331939;28;20317;-57
2023/10/14 00:05:36;;;;;;;;;;;;;;;22.03;53.26;99052.56;10334298;28;20045;-54
2023/10/14 00:10:39;;;;;;;7.43;4.32;;;;;;;22.07;53.24;99051.06;10339370;28;20283;-56
2023/10/14 00:15:40;;;;;;;7.27;4.37;;;;;;;22.05;53.04;99034.19;10339040;28;20123;-54
2023/10/14 00:20:42;;;;;;;9.65;4.82;;;;;;;22.02;53.02;99031.94;10337415;28;20049;-54
2023/10/14 00:25:43;;;;;;;8.30;4.72;;;;;;;21.98;53.06;99018.03;10333976;28;20155;-55
2023/10/14 00:30:46;;;;;;;7.28;3.92;;;;;;;21.95;53.07;99012.22;10330312;28;20123;-54
2023/10/14 00:35:53;;;;;;;6.68;4.03;;;;;;;21.96;53.17;99012.00;10334405;28;20513;-55
2023/10/14 00:40:59;;;;;;;7.90;3.92;;;;;;;21.93;53.26;99015.16;10337921;28;20691;-55
2023/10/14 00:46:10;;;;;;;6.68;4.18;;;;;;;21.89;53.31;99000.44;10337232;28;20670;-55
2023/10/14 00:51:14;;;;;;;8.52;3.95;;;;;;;21.84;53.15;98998.41;10337261;28;20746;-55
2023/10/14 00:56:18;;;;;;;13.23;4.80;;;;;;;21.92;52.90;99021.66;10332155;28;20065;-54
2023/10/14 01:01:20;;;;;;;9.43;4.18;;;;;;;21.98;52.55;99028.00;10342420;28;20286;-55
2023/10/14 01:06:23;;;;;;;13.82;4.60;;;;;;;21.99;52.36;98995.31;10331552;28;20046;-55
2023/10/14 01:11:24;;;;;;;7.30;5.22;;;;;;;22.01;52.80;98992.38;10332211;28;20054;-55
2023/10/14 01:16:36;;;;;;;11.98;4.75;;;;;;;21.98;52.91;98995.50;10330854;28;20053;-55
2023/10/14 01:21:41;;;;;;;8.65;4.50;;;;;;;21.98;53.24;98982.81;10341282;28;20551;-55
2023/10/14 01:26:51;;;;;;;10.27;4.78;;;;;;;21.94;53.38;98969.94;10342955;28;20049;-55
2023/10/14 01:32:24;;;;;;;11.05;4.13;;;;;;;21.93;53.77;98962.88;10341494;28;20249;-54
2023/10/14 01:37:33;;;;;;;11.25;4.85;;;;;;;21.93;53.51;98973.69;10334889;28;20109;-54
2023/10/14 01:42:35;;;;;;;11.02;4.55;;;;;;;21.91;53.25;98965.00;10342498;28;20054;-54
2023/10/14 01:47:43;;;;;;;6.72;3.83;;;;;;;21.93;53.17;98971.00;10338830;28;20285;-55
2023/10/14 01:52:46;;;;;;;5.82;4.70;;;;;;;21.86;53.20;98952.94;10338304;28;20048;-54
2023/10/14 01:57:47;;;;;;;13.93;5.05;;;;;;;21.92;53.34;98967.47;10338082;28;20381;-55
2023/10/14 02:02:49;;;;;;;7.15;4.25;;;;;;;21.79;53.75;98952.22;10339593;28;20046;-56
2023/10/14 02:07:52;;;;;;;6.90;4.10;;;;;;;21.86;54.50;98952.94;10335397;28;20117;-56
2023/10/14 02:12:56;;;;;;;9.85;5.38;;;;;;;21.83;54.71;98963.44;10338114;28;20669;-54
2023/10/14 02:17:59;;;;;;;9.70;5.38;;;;;;;21.76;55.13;98957.28;10336746;28;20057;-54
2023/10/14 02:23:00;;;;;;;10.75;5.63;;;;;;;21.77;55.24;98954.34;10335957;28;20196;-53
2023/10/14 02:28:05;;;;;;;9.70;5.18;;;;;;;21.75;55.65;98945.59;10340830;28;20051;-53
2023/10/14 02:33:07;;;;;;;12.25;5.20;;;;;;;21.69;55.70;98955.47;10341139;28;20052;-54
2023/10/14 02:38:09;;;;;;;7.95;5.45;;;;;;;21.60;55.77;98931.63;10340723;28;20068;-55
2023/10/14 02:43:16;;;;;;;10.57;5.13;;;;;;;21.59;55.67;98928.09;10341483;28;20045;-55
2023/10/14 02:48:20;;;;;;;11.10;5.22;;;;;;;21.66;55.28;98936.13;10340338;28;20158;-55
2023/10/14 02:53:27;;;;;;;10.23;5.18;;;;;;;21.69;55.24;98920.28;10338624;28;20050;-55
2023/10/14 02:58:31;;;;;;;8.43;4.72;;;;;;;21.66;54.14;98925.31;10337218;28;20132;-55
2023/10/14 03:03:32;;;;;;;10.63;4.88;;;;;;;21.65;53.58;98918.25;10342015;28;20568;-59
2023/10/14 03:08:34;;;;;;;9.15;3.60;;;;;;;21.67;53.43;98933.19;10336665;28;20058;-53
2023/10/14 03:13:41;;;;;;;10.73;4.13;;;;;;;21.63;53.08;98932.03;10335005;28;20096;-54
2023/10/14 03:18:44;;;;;;;10.40;4.45;;;;;;;21.58;53.14;98929.16;10336978;28;20424;-55
2023/10/14 03:23:45;;;;;;;11.32;4.25;;;;;;;21.62;53.38;98932.22;10338163;28;20058;-54
2023/10/14 03:28:50;;;;;;;6.82;3.80;;;;;;;21.54;53.26;98941.47;10336497;28;20687;-54
2023/10/14 03:33:58;;;;;;;7.55;3.80;;;;;;;21.50;53.28;98943.00;10338156;28;20132;-54
2023/10/14 03:39:16;;;;;;;8.63;3.83;;;;;;;21.51;53.33;98933.81;10334356;28;20096;-54
2023/10/14 03:44:21;;;;;;;6.82;3.47;;;;;;;21.44;53.81;98950.13;10333465;28;20572;-55
2023/10/14 03:49:22;;;;;;;5.22;2.90;;;;;;;21.37;53.79;98941.25;10339530;28;20537;-54
2023/10/14 03:54:30;;;;;;;6.30;3.40;;;;;;;21.40;54.01;98959.75;10335666;28;20713;-53
2023/10/14 03:59:33;;;;;;;5.82;2.05;;;;;;;21.31;53.98;98952.97;10335989;28;20780;-53
2023/10/14 04:04:35;;;;;;;7.57;2.15;;;;;;;21.25;53.77;98952.00;10337954;28;20152;-52
2023/10/14 04:09:39;;;;;;;4.47;1.63;;;;;;;21.09;53.89;98931.78;10350773;28;20544;-54
2023/10/14 04:14:41;;;;;;;4.13;1.27;;;;;;;21.23;54.10;98961.38;10333406;28;20541;-55
2023/10/14 04:19:54;;;;;;;7.15;1.30;;;;;;;21.08;54.63;98970.69;10336845;28;20143;-54
2023/10/14 04:25:18;;;;;;;2.97;0.75;;;;;;;21.02;55.08;98963.47;10333821;28;20049;-55
2023/10/14 04:30:32;;;;;;;3.13;0.75;;;;;;;20.97;55.65;98963.31;10340213;28;20045;-54
2023/10/14 04:35:36;;;;;;;2.00;0.60;;;;;;;20.93;55.62;98975.63;10337178;28;20589;-53
2023/10/14 04:40:38;;;;;;;1.88;0.57;;;;;;;20.94;55.86;98970.00;10335343;28;20085;-55
2023/10/14 04:51:15;;;;;;;3.47;0.77;;;;;;;20.90;56.29;98992.31;10316973;28;20073;-54
2023/10/14 04:56:29;;;;;;;1.88;0.63;;;;;;;20.83;56.89;98982.34;10348945;28;20109;-55
2023/10/14 05:01:32;;;;;;;2.03;0.50;;;;;;;20.86;57.11;98997.31;10346012;28;20149;-54
2023/10/14 05:06:43;;;;;;;2.37;0.40;;;;;;;20.87;57.32;99008.97;10351327;28;20053;-54
2023/10/14 05:11:47;;;;;;;2.17;0.50;;;;;;;20.73;57.86;99009.09;10358395;28;20049;-54
2023/10/14 05:16:57;;;;;;;2.33;0.70;;;;;;;20.68;59.05;99038.66;10352569;28;20046;-54
2023/10/14 05:22:10;;;;;;;3.55;0.50;;;;;;;20.60;59.63;99053.22;10352399;28;20455;-55
2023/10/14 05:27:12;;;;;;;2.83;0.45;;;;;;;20.59;60.80;99108.34;10354788;28;20045;-54
2023/10/14 05:32:16;;;;;;;1.75;0.30;;;;;;;20.29;70.03;99154.00;10356516;28;20143;-55
2023/10/14 05:37:18;;;;;;;0.35;0.00;;;;;;;19.54;70.58;99174.06;10345149;28;20202;-55
2023/10/14 05:42:24;;;;;;;0.80;0.67;;;;;;;19.21;72.60;99184.84;10345021;28;20114;-54
2023/10/14 05:47:27;;;;;;;0.25;0.00;;;;;;;19.45;71.01;99217.69;10360170;28;20041;-54
2023/10/14 05:52:29;;;;;;;0.40;0.00;;;;;;;19.34;74.39;99222.66;10349301;28;20055;-55
2023/10/14 05:57:34;;;;;;;0.15;0.10;;;;;;;19.47;73.09;99258.78;10354679;28;21383;-54
2023/10/14 06:02:35;;;;;;;1.58;0.08;;;;;;;19.65;72.94;99283.31;10346045;28;20079;-49
2023/10/14 06:07:39;;;;;;;3.00;0.43;;;;;;;19.45;71.46;99309.44;10350686;28;20687;-51
2023/10/14 06:12:44;;;;;;;0.32;0.00;;;;;;;19.04;73.93;99322.78;10351028;28;20053;-48
2023/10/14 06:17:47;;;;;;;0.05;0.00;;;;;;;18.87;73.15;99348.41;10349069;28;21525;-55
2023/10/14 06:22:50;;;;;;;0.10;0.00;;;;;;;18.68;75.36;99366.13;10345243;28;20120;-57
2023/10/14 06:27:53;;;;;;;0.10;0.00;;;;;;;18.68;75.53;99347.28;10356555;28;20476;-55
2023/10/14 06:33:03;;;;;;;0.20;0.00;;;;;;;19.03;74.78;99391.25;10350155;28;20053;-53
2023/10/14 06:38:09;;;;;;;0.30;0.00;;;;;;;19.17;74.31;99399.41;10353493;28;20069;-54
2023/10/14 06:43:12;;;;;;;2.17;0.00;;;;;;;19.19;75.02;99410.84;10350424;28;20045;-54
2023/10/14 06:48:14;;;;;;;1.95;0.10;;;;;;;19.23;73.89;99426.41;10349580;28;20053;-57
2023/10/14 06:53:18;;;;;;;0.00;0.00;;;;;;;19.20;74.30;99447.56;10342198;28;20045;-54
2023/10/14 06:58:21;;;;;;;0.50;0.00;;;;;;;19.28;72.64;99460.06;10346846;28;20054;-54
2023/10/14 07:03:23;;;;;;;1.42;0.00;;;;;;;19.33;73.36;99484.56;10344174;28;20053;-55
2023/10/14 07:08:27;;;;;;;0.30;0.00;;;;;;;19.28;72.45;99495.97;10358076;28;20072;-55
2023/10/14 07:13:28;;;;;;;0.28;0.00;;;;;;;19.27;71.18;99518.56;10349109;28;20049;-54
2023/10/14 07:18:30;;;;;;;1.48;0.10;;;;;;;19.19;72.79;99532.22;10348935;28;20140;-55
2023/10/14 07:23:36;;;;;;;1.55;0.00;;;;;;;19.11;71.96;99551.25;10348151;28;20056;-54
2023/10/14 07:28:42;;;;;;;0.52;0.00;;;;;;;18.69;69.05;99570.81;10353081;28;20059;-55
2023/10/14 07:33:47;;;;;;;1.08;0.20;;;;;;;18.02;66.03;99580.84;10344202;28;20045;-53
2023/10/14 07:38:49;;;;;;;2.65;0.20;;;;;;;17.65;67.49;99598.78;10345814;28;20088;-55
2023/10/14 07:43:50;;;;;;;1.23;0.20;;;;;;;17.35;67.42;99605.16;10345625;28;20049;-55
2023/10/14 07:48:53;;;;;;;2.90;0.70;;;;;;;17.29;61.60;99607.56;10344209;28;20780;-55
2023/10/14 07:53:55;;;;;;;4.15;0.75;;;;;;;17.65;59.20;99585.31;10341343;28;20208;-54
2023/10/14 07:58:57;;;;;;;3.95;1.05;;;;;;;17.60;56.55;99608.44;10340374;28;20646;-55
2023/10/14 08:03:58;;;;;;;4.28;1.15;;;;;;;17.59;56.74;99628.28;10338847;28;20468;-53
2023/10/14 08:09:00;;;;;;;5.05;1.48;;;;;;;17.37;55.81;99619.25;10349273;28;20053;-55
2023/10/14 08:14:01;;;;;;;4.90;1.60;;;;;;;17.77;54.05;99617.13;10342891;28;20136;-55
2023/10/14 08:19:06;;;;;;;6.25;1.15;;;;;;;17.80;53.51;99630.22;10344538;28;20061;-56
2023/10/14 08:24:08;;;;;;;5.55;1.65;;;;;;;17.85;54.73;99643.97;10336501;28;20077;-55
2023/10/14 08:29:12;;;;;;;4.72;1.10;;;;;;;18.10;55.62;99659.88;10346148;28;20099;-55
2023/10/14 08:34:14;;;;;;;3.83;1.27;;;;;;;18.43;55.47;99656.75;10335927;28;20260;-55
2023/10/14 08:39:15;;;;;;;6.43;1.55;;;;;;;18.27;52.05;99660.50;10336090;28;20903;-57
2023/10/14 08:44:25;;;;;;;6.47;1.30;;;;;;;18.13;53.41;99670.25;10339821;28;20066;-54
2023/10/14 08:49:29;;;;;;;5.97;1.08;;;;;;;18.14;54.55;99670.06;10333415;28;20089;-54
2023/10/14 08:54:33;;;;;;;7.22;1.67;;;;;;;18.34;52.75;99689.19;10335460;28;20054;-55
2023/10/14 08:59:35;;;;;;;4.63;1.20;;;;;;;18.33;50.34;99692.91;10331784;28;20061;-56
2023/10/14 09:04:37;;;;;;;4.25;1.58;;;;;;;17.77;51.63;99716.75;10337214;28;20242;-55
2023/10/14 09:09:40;;;;;;;5.45;1.38;;;;;;;17.98;51.12;99719.56;10335114;28;20061;-55
2023/10/14 09:14:42;;;;;;;4.22;1.63;;;;;;;18.38;51.56;99722.81;10344457;28;20065;-55
2023/10/14 09:19:49;;;;;;;5.07;1.45;;;;;;;18.28;48.04;99724.13;10336409;28;20116;-54
2023/10/14 09:24:51;;;;;;;4.75;1.50;;;;;;;18.36;46.28;99742.91;10336639;28;20060;-55
2023/10/14 09:29:57;;;;;;;7.00;1.53;;;;;;;18.79;47.41;99742.19;10336142;28;20606;-55
2023/10/14 09:34:59;;;;;;;4.63;1.25;;;;;;;18.61;46.13;99735.31;10335079;28;20053;-55
2023/10/14 09:40:06;;;;;;;3.60;1.23;;;;;;;18.54;46.51;99745.22;10335769;28;20903;-54
2023/10/14 09:45:10;;;;;;;6.18;1.38;;;;;;;18.07;48.04;99755.31;10337081;28;20052;-55
2023/10/14 09:50:14;;;;;;;3.58;1.15;;;;;;;19.38;45.80;99760.03;10341235;28;20187;-54
2023/10/14 09:55:20;;;;;;;3.63;1.17;;;;;;;20.17;44.02;99771.72;10343358;28;20061;-54
2023/10/14 10:00:22;;;;;;;7.75;1.65;;;;;;;20.50;42.59;99771.91;10339647;28;20042;-54
2023/10/14 10:05:38;;;;;;;3.70;1.20;;;;;;;20.87;40.71;99772.53;10344168;28;20072;-56
2023/10/14 10:10:42;;;;;;;7.60;1.20;;;;;;;20.76;41.70;99771.25;10343493;28;20436;-57
2023/10/14 10:15:45;;;;;;;3.03;1.00;;;;;;;21.32;40.44;99770.13;10344563;28;20064;-54
2023/10/14 10:20:55;;;;;;;5.22;1.48;;;;;;;20.81;38.63;99757.09;10340977;28;20060;-55
2023/10/14 10:25:59;;;;;;;5.90;1.27;;;;;;;21.03;41.08;99774.00;10339454;28;20045;-54
2023/10/14 10:31:09;;;;;;;4.72;1.38;;;;;;;20.36;39.09;99784.53;10340870;28;20469;-55
2023/10/14 10:36:13;;;;;;;5.25;1.17;;;;;;;19.76;41.37;99787.59;10344904;28;20130;-55
2023/10/14 10:41:24;;;;;;;;;;;;;;;19.73;42.91;99782.59;10346281;28;20061;-54
2023/10/14 10:46:38;;;;;;;3.08;1.00;;;;;;;20.90;40.84;99771.28;10344498;28;20377;-54
2023/10/14 10:52:07;;;;;;;4.15;1.00;;;;;;;21.14;40.05;99783.44;10338676;28;20068;-55
2023/10/14 10:57:11;;;;;;;3.53;0.80;;;;;;;21.42;38.78;99769.72;10341072;28;20049;-55
2023/10/14 11:02:15;;;;;;;4.13;1.25;;;;;;;21.96;36.86;99767.06;10340410;28;20610;-56
2023/10/14 11:07:23;;;;;;;3.92;0.70;;;;;;;21.54;38.60;99775.38;10338164;28;20826;-55
2023/10/14 11:12:25;;;;;;;2.60;0.60;;;;;;;22.22;35.82;99767.03;10341430;28;20046;-56
2023/10/14 11:17:26;;;;;;;2.40;0.60;;;;;;;22.97;34.89;99786.59;10344898;28;20163;-56
2023/10/14 11:22:28;;;;;;;5.05;0.88;;;;;;;23.69;33.22;99778.25;10344347;28;20136;-53
2023/10/14 11:27:30;;;;;;;3.28;0.68;;;;;;;22.70;34.24;99775.88;10334151;28;20058;-54
2023/10/14 11:32:32;;;;;;;3.17;0.90;;;;;;;22.14;36.24;99775.34;10341692;28;20049;-54
2023/10/14 11:37:36;;;;;;;3.38;0.55;;;;;;;21.41;35.06;99773.50;10334089;28;20049;-54
2023/10/14 11:42:48;;;;;;;2.50;0.95;;;;;;;21.19;35.82;99779.06;10337432;28;20056;-56
2023/10/14 11:47:51;;;;;;;2.00;0.50;;;;;;;22.03;36.55;99778.72;10337132;28;20053;-55
2023/10/14 11:52:53;;;;;;;3.47;0.73;;;;;;;23.14;34.17;99785.09;10339425;28;20045;-55
2023/10/14 11:57:54;;;;;;;3.35;0.80;;;;;;;23.18;32.71;99789.03;10334030;28;20053;-55
2023/10/14 12:02:56;;;;;;;3.97;0.47;;;;;;;21.91;35.69;99777.72;10341470;28;20064;-55
2023/10/14 12:07:57;;;;;;;2.05;0.50;;;;;;;22.37;34.56;99779.53;10334676;28;20679;-55
2023/10/14 12:12:59;;;;;;;1.85;0.52;;;;;;;21.70;34.20;99776.88;10338304;28;20443;-58
2023/10/14 12:18:02;;;;;;;3.70;0.95;;;;;;;21.82;34.83;99790.63;10339059;28;20714;-56
2023/10/14 12:23:03;;;;;;;2.58;0.70;;;;;;;22.22;36.32;99791.41;10338350;28;20230;-55
2023/10/14 12:28:05;;;;;;;3.88;0.73;;;;;;;21.41;38.19;99794.28;10337231;28;20300;-56
2023/10/14 12:33:07;;;;;;;4.20;0.60;;;;;;;20.70;35.71;99803.66;10342736;28;20056;-56
2023/10/14 12:38:12;;;;;;;3.05;0.93;;;;;;;19.94;39.77;99803.34;10339977;28;20160;-55
2023/10/14 12:43:27;;;;;;;3.92;0.82;;;;;;;19.77;36.80;99805.50;10339015;28;20540;-55
2023/10/14 12:48:28;;;;;;;3.97;0.80;;;;;;;21.93;34.46;99797.28;10340410;28;20053;-56
2023/10/14 12:53:31;;;;;;;1.77;0.50;;;;;;;21.91;34.98;99810.22;10339507;28;20053;-55
2023/10/14 12:58:32;;;;;;;2.45;0.60;;;;;;;23.14;32.83;99808.72;10343309;28;20060;-54
2023/10/14 13:03:35;;;;;;;;;;;;;;;22.09;33.27;99823.97;10343332;28;20190;-55
2023/10/14 13:08:37;;;;;;;3.03;0.70;;;;;;;22.55;32.83;99836.66;10344444;28;19936;-54
2023/10/14 13:13:38;;;;;;;2.42;0.88;;;;;;;23.87;31.53;99834.56;10340254;28;20516;-54
2023/10/14 13:18:40;;;;;;;4.32;0.70;;;;;;;26.88;26.97;99831.28;10348750;28;20655;-55
2023/10/14 13:23:42;;;;;;;3.30;1.03;;;;;;;28.67;24.43;99797.13;10346972;28;20054;-53
2023/10/14 13:28:50;;;;;;;2.80;0.70;;;;;;;27.77;25.39;99838.16;10349775;28;20622;-53
2023/10/14 13:33:52;;;;;;;3.63;0.80;;;;;;;23.91;30.01;99835.78;10330350;28;20120;-54
2023/10/14 13:38:54;;;;;;;5.50;0.82;;;;;;;26.73;26.14;99839.97;10339593;28;20053;-54
2023/10/14 13:43:56;;;;;;;2.17;0.68;;;;;;;29.77;22.81;99852.88;10342057;28;20191;-54
2023/10/14 13:48:57;;;;;;;2.97;0.90;;;;;;;31.63;20.82;99872.09;10342080;28;20092;-56
2023/10/14 13:53:59;;;;;;;3.13;1.00;;;;;;;33.04;20.15;99858.69;10346316;28;20046;-51
2023/10/14 13:59:00;;;;;;;5.40;1.20;;;;;;;33.43;19.92;99863.47;10340978;28;20390;-53
2023/10/14 14:04:02;;;;;;;3.80;1.35;;;;;;;34.34;19.04;99859.50;10339989;28;20153;-53
2023/10/14 14:09:04;;;;;;;4.95;1.20;;;;;;;34.23;17.38;99867.03;10338631;28;20046;-53
2023/10/14 14:14:06;;;;;;;2.22;0.65;;;;;;;31.66;20.41;99885.31;10341428;28;20081;-53
2023/10/14 14:19:10;;;;;;;3.08;0.98;;;;;;;28.41;22.80;99874.50;10336711;28;20167;-53
2023/10/14 14:24:12;;;;;;;3.58;0.60;;;;;;;25.62;25.99;99888.81;10331332;28;20041;-53
2023/10/14 14:29:14;;;;;;;2.17;0.40;;;;;;;28.97;21.23;99894.47;10338266;28;21452;-53
2023/10/14 14:34:16;;;;;;;4.32;1.02;;;;;;;30.84;20.78;99907.78;10334967;28;20057;-54
2023/10/14 14:39:19;;;;;;;2.80;0.70;;;;;;;27.17;23.04;99916.84;10342566;28;20655;-53
2023/10/14 14:44:20;;;;;;;3.00;0.65;;;;;;;23.22;27.79;99920.56;10332515;28;20056;-53
2023/10/14 14:49:23;;;;;;;3.97;0.65;;;;;;;21.84;32.22;99929.41;10336063;28;20081;-54
2023/10/14 14:54:25;;;;;;;6.07;0.98;;;;;;;21.17;31.03;99919.16;10335941;28;21790;-53
2023/10/14 14:59:27;;;;;;;4.28;0.70;;;;;;;21.04;31.83;99924.50;10340918;28;20053;-52
2023/10/14 15:04:28;;;;;;;3.97;1.33;;;;;;;20.89;33.47;99927.34;10334909;28;20179;-52
2023/10/14 15:09:31;;;;;;;3.10;0.90;;;;;;;20.43;31.59;99942.19;10334175;28;20159;-52
2023/10/14 15:14:38;;;;;;;2.60;0.67;;;;;;;19.80;32.58;99952.78;10335626;28;20077;-53
2023/10/14 15:19:41;;;;;;;2.15;0.60;;;;;;;19.25;37.15;99952.34;10335323;28;20382;-51
2023/10/14 15:24:42;;;;;;;1.90;0.70;;;;;;;19.36;34.67;99951.84;10335290;28;20108;-53
2023/10/14 15:29:48;;;;;;;2.78;0.65;;;;;;;18.86;33.94;99948.06;10332799;28;20136;-53
2023/10/14 15:34:50;;;;;;;2.40;0.93;;;;;;;18.84;35.89;99966.22;10337967;28;20242;-54
2023/10/14 15:39:52;;;;;;;4.75;0.80;;;;;;;19.21;36.39;99968.03;10330139;28;20061;-52
2023/10/14 15:44:54;;;;;;;3.23;0.80;;;;;;;18.69;35.36;99977.84;10330943;28;20053;-53
2023/10/14 15:49:56;;;;;;;2.20;0.82;;;;;;;18.34;35.29;99972.06;10337979;28;20332;-52
2023/10/14 15:54:58;;;;;;;3.70;1.23;;;;;;;18.49;37.76;99979.38;10336754;28;20056;-53
2023/10/14 16:00:01;;;;;;;5.10;0.93;;;;;;;18.57;37.60;99990.09;10328406;28;20917;-53
2023/10/14 16:05:09;;;;;;;2.15;0.75;;;;;;;18.62;37.90;99994.94;10331290;28;20704;-54
2023/10/14 16:10:11;;;;;;;2.20;0.80;;;;;;;18.34;38.76;99990.94;10338672;28;20056;-54
2023/10/14 16:15:16;;;;;;;3.10;0.88;;;;;;;18.31;39.92;99991.31;10335850;28;20060;-53
2023/10/14 16:20:23;;;;;;;3.45;1.05;;;;;;;18.49;40.14;100007.16;10339529;28;20064;-52
2023/10/14 16:25:24;;;;;;;3.80;1.00;;;;;;;18.48;39.77;100018.13;10352272;28;20759;-52
2023/10/14 16:30:27;;;;;;;3.10;0.77;;;;;;;18.43;40.53;100031.31;10333618;28;20075;-52
2023/10/14 16:35:30;;;;;;;1.90;0.80;;;;;;;18.38;40.35;100027.28;10336950;28;20081;-54
2023/10/14 16:40:34;;;;;;;4.57;1.17;;;;;;;18.32;41.21;100037.97;10342835;28;20050;-52
2023/10/14 16:45:36;;;;;;;3.22;1.13;;;;;;;18.26;42.57;100044.91;10338515;28;20089;-53
2023/10/14 16:50:39;;;;;;;4.63;1.25;;;;;;;18.12;42.31;100034.88;10341112;28;20053;-54
2023/10/14 16:55:41;;;;;;;3.45;0.95;;;;;;;18.12;40.16;100061.81;10349418;28;20600;-52
2023/10/14 17:00:42;;;;;;;5.38;1.90;;;;;;;18.00;42.17;100066.78;10344367;28;20053;-53
2023/10/14 17:05:44;;;;;;;5.75;1.83;;;;;;;17.91;42.30;100071.38;10349730;28;20053;-54
2023/10/14 17:10:45;;;;;;;3.70;1.40;;;;;;;17.93;41.53;100093.56;10350981;28;20058;-53
2023/10/14 17:15:47;;;;;;;4.78;1.27;;;;;;;17.90;41.57;100099.31;10356331;28;20537;-53
2023/10/14 17:20:48;;;;;;;5.03;1.30;;;;;;;17.76;41.82;100098.16;10352157;28;20146;-53
2023/10/14 17:25:52;;;;;;;4.10;1.90;;;;;;;17.85;43.72;100112.44;10358031;28;20049;-53
2023/10/14 17:30:53;;;;;;;4.22;1.55;;;;;;;17.73;42.66;100117.34;10368965;28;20065;-53
2023/10/14 17:35:55;;;;;;;3.03;0.85;;;;;;;17.74;43.37;100126.25;10358707;28;20466;-53
2023/10/14 17:40:57;;;;;;;4.15;1.45;;;;;;;17.38;44.23;100132.06;10342061;28;20053;-53
2023/10/14 17:45:58;;;;;;;2.95;1.30;;;;;;;17.38;42.99;100143.66;10337472;28;20833;-53
2023/10/14 17:51:00;;;;;;;6.57;1.50;;;;;;;17.13;42.94;100150.94;10344141;28;20057;-53
2023/10/14 17:56:09;;;;;;;3.30;0.98;;;;;;;16.90;41.67;100162.34;10348137;28;20044;-53
2023/10/14 18:01:12;;;;;;;4.50;0.88;;;;;;;16.51;43.65;100179.03;10347112;28;20057;-53
2023/10/14 18:06:13;;;;;;;3.40;0.90;;;;;;;16.30;42.54;100181.31;10347995;28;20299;-54
2023/10/14 18:11:15;;;;;;;3.28;1.02;;;;;;;16.15;42.09;100156.94;10348964;28;20838;-53
2023/10/14 18:16:18;;;;;;;5.13;1.00;;;;;;;16.38;43.11;100200.19;10344009;28;20057;-56
2023/10/14 18:21:19;;;;;;;4.15;0.90;;;;;;;16.54;45.19;100205.59;10344279;28;20061;-53
2023/10/14 18:26:21;;;;;;;7.03;1.30;;;;;;;16.41;42.76;100215.97;10348858;28;20060;-53
2023/10/14 18:31:22;;;;;;;4.72;0.70;;;;;;;15.58;44.03;100224.53;10349397;28;20095;-50
2023/10/14 18:36:24;;;;;;;4.22;0.85;;;;;;;15.70;47.45;100239.38;10343872;28;20687;-52
2023/10/14 18:41:27;;;;;;;4.75;1.10;;;;;;;15.77;47.14;100227.00;10345613;28;20464;-52
2023/10/14 18:46:30;;;;;;;5.97;1.48;;;;;;;16.28;47.51;100254.00;10340963;28;20859;-56
2023/10/14 18:51:33;;;;;;;4.25;1.30;;;;;;;16.22;46.64;100260.03;10345267;28;20934;-53
2023/10/14 18:56:38;;;;;;;5.97;1.85;;;;;;;15.94;45.03;100251.31;10345789;28;20201;-53
2023/10/14 19:01:39;;;;;;;5.45;1.10;;;;;;;15.79;45.84;100254.56;10335239;28;20527;-53
2023/10/14 19:06:41;;;;;;;6.07;1.35;;;;;;;15.88;45.34;100259.00;10333339;28;20068;-53
2023/10/14 19:11:42;;;;;;;5.10;1.80;;;;;;;16.02;47.24;100259.41;10336569;28;20061;-52
2023/10/14 19:16:43;;;;;;;5.45;1.30;;;;;;;16.08;45.60;100261.47;10333926;28;20162;-52
2023/10/14 19:21:45;;;;;;;4.93;0.90;;;;;;;15.84;46.36;100267.53;10341425;28;20111;-53
2023/10/14 19:26:48;;;;;;;4.55;1.38;;;;;;;15.93;48.28;100265.72;10344705;28;20064;-54
2023/10/14 19:31:54;;;;;;;5.10;1.47;;;;;;;15.76;48.28;100268.25;10340401;28;20711;-54
2023/10/14 19:37:01;;;;;;;4.50;1.65;;;;;;;15.59;48.72;100247.69;10339880;28;20148;-53
2023/10/14 19:42:04;;;;;;;5.28;1.83;;;;;;;15.91;48.89;100273.94;10333237;28;20074;-54
2023/10/14 19:47:05;;;;;;;6.40;2.03;;;;;;;15.72;47.00;100281.16;10330205;28;20151;-54
2023/10/14 19:52:07;;;;;;;4.55;1.05;;;;;;;15.60;49.07;100286.91;10339611;28;20049;-52
2023/10/14 19:57:09;;;;;;;5.88;1.63;;;;;;;15.77;49.71;100299.47;10327653;28;20652;-52
2023/10/14 20:02:10;;;;;;;4.40;1.88;;;;;;;15.83;49.53;100312.28;10346904;28;20136;-52
2023/10/14 20:07:13;;;;;;;5.05;1.73;;;;;;;15.88;48.55;100311.81;10347036;28;20131;-50
2023/10/14 20:12:14;;;;;;;4.47;1.83;;;;;;;15.48;49.73;100305.13;10344694;28;20045;-53
2023/10/14 20:17:16;;;;;;;4.95;1.88;;;;;;;15.36;49.09;100313.38;10352060;28;20475;-53
2023/10/14 20:22:17;;;;;;;4.53;1.67;;;;;;;15.50;49.26;100316.53;10346909;28;20061;-53
2023/10/14 20:27:19;;;;;;;11.00;1.85;;;;;;;15.61;49.39;100326.16;10343159;28;20049;-54
2023/10/14 20:32:21;;;;;;;4.07;1.42;;;;;;;15.65;49.73;100327.56;10354993;28;20552;-53
2023/10/14 20:37:23;;;;;;;3.63;1.10;;;;;;;15.63;48.96;100319.66;10342877;28;20413;-55
2023/10/14 20:42:24;;;;;;;5.28;2.05;;;;;;;15.66;49.89;100330.09;10346745;28;20057;-54
2023/10/14 20:47:25;;;;;;;3.78;1.20;;;;;;;15.54;49.87;100318.75;10336539;28;20128;-55
2023/10/14 20:52:27;;;;;;;3.15;1.30;;;;;;;15.62;48.56;100334.06;10340831;28;20093;-54
2023/10/14 20:57:28;;;;;;;3.67;1.52;;;;;;;15.50;49.64;100330.78;10342827;28;20283;-55
2023/10/14 21:02:30;;;;;;;4.95;1.73;;;;;;;15.41;49.31;100341.59;10341556;28;20528;-55
2023/10/14 21:07:31;;;;;;;5.57;1.90;;;;;;;15.37;49.61;100331.16;10343807;28;20038;-54
2023/10/14 21:12:33;;;;;;;5.13;1.40;;;;;;;15.24;49.43;100319.97;10346778;28;20113;-57
2023/10/14 21:17:37;;;;;;;4.70;1.45;;;;;;;15.26;50.22;100331.38;10344463;28;20590;-54
2023/10/14 21:22:40;;;;;;;3.90;1.08;;;;;;;15.19;49.72;100341.88;10338639;28;20134;-55
2023/10/14 21:27:43;;;;;;;5.50;1.50;;;;;;;15.12;50.24;100322.03;10342838;28;20060;-54
2023/10/14 21:32:45;;;;;;;5.75;1.67;;;;;;;15.13;50.31;100338.94;10342787;28;20045;-54
2023/10/14 21:37:46;;;;;;;3.03;1.17;;;;;;;15.07;51.06;100340.38;10344716;28;20087;-54
2023/10/14 21:42:51;;;;;;;4.47;1.70;;;;;;;15.09;51.65;100349.16;10348890;28;21830;-54
2023/10/14 21:47:53;;;;;;;5.10;1.80;;;;;;;14.96;51.29;100332.56;10345534;28;20069;-55
2023/10/14 21:52:54;;;;;;;6.13;1.67;;;;;;;15.02;50.95;100345.38;10346341;28;20107;-54
2023/10/14 21:57:58;;;;;;;3.13;1.40;;;;;;;14.99;50.45;100345.66;10344471;28;20072;-54
2023/10/14 22:03:01;;;;;;;5.03;1.43;;;;;;;14.75;51.05;100314.91;10353037;28;20053;-54
2023/10/14 22:08:05;;;;;;;3.65;1.20;;;;;;;14.93;50.51;100341.75;10350755;28;20046;-54
2023/10/14 22:13:10;;;;;;;3.20;1.33;;;;;;;14.57;50.62;100311.31;10348422;28;20076;-55
2023/10/14 22:18:12;;;;;;;4.25;2.05;;;;;;;14.71;51.57;100352.88;10341560;28;20671;-54
2023/10/14 22:23:13;;;;;;;4.07;0.98;;;;;;;14.66;51.09;100332.72;10345055;28;20060;-55
2023/10/14 22:28:15;;;;;;;2.78;1.00;;;;;;;14.82;50.89;100341.97;10343672;28;20053;-55
2023/10/14 22:33:18;;;;;;;6.38;2.00;;;;;;;14.55;51.42;100332.06;10352622;28;20053;-55
2023/10/14 22:38:21;;;;;;;4.05;1.10;;;;;;;14.70;52.01;100337.78;10344718;28;20112;-55
2023/10/14 22:43:23;;;;;;;6.60;1.50;;;;;;;14.63;51.46;100337.53;10344179;28;20765;-55
2023/10/14 22:48:28;;;;;;;4.38;1.48;;;;;;;14.57;52.79;100338.94;10344100;28;20157;-53
2023/10/14 22:53:30;;;;;;;6.72;1.48;;;;;;;14.53;51.72;100344.72;10347402;28;20473;-54
2023/10/14 22:58:38;;;;;;;4.93;1.30;;;;;;;14.49;52.25;100345.03;10348477;28;20403;-54
2023/10/14 23:03:41;;;;;;;4.55;1.27;;;;;;;14.46;51.10;100341.81;10345297;28;20168;-54
2023/10/14 23:08:43;;;;;;;4.15;1.38;;;;;;;14.12;51.06;100292.28;10344584;28;20064;-55
2023/10/14 23:13:44;;;;;;;5.13;1.63;;;;;;;14.36;52.61;100336.47;10335428;28;20049;-54
2023/10/14 23:18:46;;;;;;;6.22;1.60;;;;;;;14.39;52.25;100338.84;10342758;28;20049;-54
2023/10/14 23:23:48;;;;;;;5.93;1.77;;;;;;;14.33;52.74;100336.75;10338903;28;20495;-54
2023/10/14 23:28:51;;;;;;;2.92;1.20;;;;;;;14.28;53.18;100337.22;10341560;28;20054;-53